Paro, Bhutan
Current Conditions -  °F | °C
As of 9:50 PM on Thursday 30 Oct 2014 (Local Time) from VNKT Reporting Station
Haze Haze  
Wind Chill: 59°   Ceiling: 10000
Heat Index: 59°   Visibility: 2.5mi
Dew Point: 55°   Wind: 3mph
Humidity: 88%   Direction: 150°SSE
Pressure: 30.12"   Gusts: NA
Location:  27.51°N, 89.36°E
Report Text: VNKT 301550Z 15003KT 4000 BR FEW020 SCT025 BKN100 15/13 Q1020 NOSIG
Loading
Personal Weather Stations






























Interactive Weather Map
Tropical Storm Tracking
New forecast layout! Learn more

10-Day Weather Forecast

Advertisements
Track Severe Weather on mobile